sensor_id;sensor_type;location;lat;lon;timestamp;temperature;humidity
1123;DHT22;548;48.778;9.252;2023-08-21T00:01:37;25.00;99.90
1123;DHT22;548;48.778;9.252;2023-08-21T00:04:04;25.00;99.90
1123;DHT22;548;48.778;9.252;2023-08-21T00:06:34;24.90;99.90
1123;DHT22;548;48.778;9.252;2023-08-21T00:09:04;24.90;99.90
1123;DHT22;548;48.778;9.252;2023-08-21T00:11:30;25.00;99.90
1123;DHT22;548;48.778;9.252;2023-08-21T00:13:57;25.00;99.90
1123;DHT22;548;48.778;9.252;2023-08-21T00:16:24;24.90;99.90
1123;DHT22;548;48.778;9.252;2023-08-21T00:18:53;24.80;99.90
1123;DHT22;548;48.778;9.252;2023-08-21T00:21:20;24.80;99.90
1123;DHT22;548;48.778;9.252;2023-08-21T00:23:50;24.60;99.90
1123;DHT22;548;48.778;9.252;2023-08-21T00:26:21;24.80;99.90
1123;DHT22;548;48.778;9.252;2023-08-21T00:28:49;24.80;99.90
1123;DHT22;548;48.778;9.252;2023-08-21T00:31:16;24.80;99.90
1123;DHT22;548;48.778;9.252;2023-08-21T00:33:46;24.80;99.90
1123;DHT22;548;48.778;9.252;2023-08-21T00:36:12;24.80;99.90
1123;DHT22;548;48.778;9.252;2023-08-21T00:38:39;24.70;99.90
1123;DHT22;548;48.778;9.252;2023-08-21T00:41:06;24.60;99.90
1123;DHT22;548;48.778;9.252;2023-08-21T00:43:34;24.60;99.90
1123;DHT22;548;48.778;9.252;2023-08-21T00:46:01;24.60;99.90
1123;DHT22;548;48.778;9.252;2023-08-21T00:48:28;24.60;99.90
1123;DHT22;548;48.778;9.252;2023-08-21T00:50:55;24.60;99.90
1123;DHT22;548;48.778;9.252;2023-08-21T00:53:22;24.60;99.90
1123;DHT22;548;48.778;9.252;2023-08-21T00:55:49;24.50;99.90
1123;DHT22;548;48.778;9.252;2023-08-21T00:58:17;24.50;99.90
1123;DHT22;548;48.778;9.252;2023-08-21T01:00:46;24.40;99.90
1123;DHT22;548;48.778;9.252;2023-08-21T01:03:15;24.40;99.90
1123;DHT22;548;48.778;9.252;2023-08-21T01:05:42;24.40;99.90
1123;DHT22;548;48.778;9.252;2023-08-21T01:08:13;24.40;99.90
1123;DHT22;548;48.778;9.252;2023-08-21T01:10:48;24.40;99.90
1123;DHT22;548;48.778;9.252;2023-08-21T01:13:24;24.30;99.90
1123;DHT22;548;48.778;9.252;2023-08-21T01:15:58;24.20;99.90
1123;DHT22;548;48.778;9.252;2023-08-21T01:18:26;24.20;99.90
1123;DHT22;548;48.778;9.252;2023-08-21T01:20:55;24.20;99.90
1123;DHT22;548;48.778;9.252;2023-08-21T01:23:33;24.10;99.90
1123;DHT22;548;48.778;9.252;2023-08-21T01:26:00;24.10;99.90
1123;DHT22;548;48.778;9.252;2023-08-21T01:28:28;24.00;99.90
1123;DHT22;548;48.778;9.252;2023-08-21T01:31:00;24.00;99.90
1123;DHT22;548;48.778;9.252;2023-08-21T01:33:30;24.00;99.90
1123;DHT22;548;48.778;9.252;2023-08-21T01:36:02;24.00;99.90
1123;DHT22;548;48.778;9.252;2023-08-21T01:38:32;23.90;99.90
1123;DHT22;548;48.778;9.252;2023-08-21T01:41:00;23.90;99.90
1123;DHT22;548;48.778;9.252;2023-08-21T01:43:27;23.90;99.90
1123;DHT22;548;48.778;9.252;2023-08-21T01:45:54;23.80;99.90
1123;DHT22;548;48.778;9.252;2023-08-21T01:48:21;23.80;99.90
1123;DHT22;548;48.778;9.252;2023-08-21T01:50:48;23.70;99.90
1123;DHT22;548;48.778;9.252;2023-08-21T01:53:14;23.70;99.90
1123;DHT22;548;48.778;9.252;2023-08-21T01:55:42;23.60;99.90
1123;DHT22;548;48.778;9.252;2023-08-21T01:58:09;23.60;99.90
1123;DHT22;548;48.778;9.252;2023-08-21T02:00:36;23.60;99.90
1123;DHT22;548;48.778;9.252;2023-08-21T02:03:03;23.60;99.90
1123;DHT22;548;48.778;9.252;2023-08-21T02:05:29;23.50;99.90
1123;DHT22;548;48.778;9.252;2023-08-21T02:07:56;23.50;99.90
1123;DHT22;548;48.778;9.252;2023-08-21T02:10:23;23.50;99.90
1123;DHT22;548;48.778;9.252;2023-08-21T02:12:51;23.50;99.90
1123;DHT22;548;48.778;9.252;2023-08-21T02:15:19;23.50;99.90
1123;DHT22;548;48.778;9.252;2023-08-21T02:17:47;23.50;99.90
1123;DHT22;548;48.778;9.252;2023-08-21T02:20:14;23.50;99.90
1123;DHT22;548;48.778;9.252;2023-08-21T02:22:41;23.40;99.90
1123;DHT22;548;48.778;9.252;2023-08-21T02:25:08;23.40;99.90
1123;DHT22;548;48.778;9.252;2023-08-21T02:27:34;23.40;99.90
1123;DHT22;548;48.778;9.252;2023-08-21T02:30:03;23.40;99.90
1123;DHT22;548;48.778;9.252;2023-08-21T02:32:30;23.30;99.90
1123;DHT22;548;48.778;9.252;2023-08-21T02:34:56;23.30;99.90
1123;DHT22;548;48.778;9.252;2023-08-21T02:37:23;23.30;99.90
1123;DHT22;548;48.778;9.252;2023-08-21T02:39:50;23.30;99.90
1123;DHT22;548;48.778;9.252;2023-08-21T02:42:16;23.30;99.90
1123;DHT22;548;48.778;9.252;2023-08-21T02:44:43;23.30;99.90
1123;DHT22;548;48.778;9.252;2023-08-21T02:47:11;23.30;99.90
1123;DHT22;548;48.778;9.252;2023-08-21T02:49:38;23.30;99.90
1123;DHT22;548;48.778;9.252;2023-08-21T02:52:04;23.30;99.90
1123;DHT22;548;48.778;9.252;2023-08-21T02:54:31;23.20;99.90
1123;DHT22;548;48.778;9.252;2023-08-21T02:56:58;23.20;99.90
1123;DHT22;548;48.778;9.252;2023-08-21T02:59:25;23.20;99.90
1123;DHT22;548;48.778;9.252;2023-08-21T03:01:52;23.20;99.90
1123;DHT22;548;48.778;9.252;2023-08-21T03:04:20;23.20;99.90
1123;DHT22;548;48.778;9.252;2023-08-21T03:06:46;23.10;99.90
1123;DHT22;548;48.778;9.252;2023-08-21T03:09:13;23.10;99.90
1123;DHT22;548;48.778;9.252;2023-08-21T03:11:40;23.10;99.90
1123;DHT22;548;48.778;9.252;2023-08-21T03:14:07;23.10;99.90
1123;DHT22;548;48.778;9.252;2023-08-21T03:16:34;23.10;99.90
1123;DHT22;548;48.778;9.252;2023-08-21T03:19:00;23.10;99.90
1123;DHT22;548;48.778;9.252;2023-08-21T03:21:28;23.10;99.90
1123;DHT22;548;48.778;9.252;2023-08-21T03:23:57;23.10;99.90
1123;DHT22;548;48.778;9.252;2023-08-21T03:26:25;23.00;99.90
1123;DHT22;548;48.778;9.252;2023-08-21T03:28:52;23.00;99.90
1123;DHT22;548;48.778;9.252;2023-08-21T03:31:19;23.00;99.90
1123;DHT22;548;48.778;9.252;2023-08-21T03:33:46;23.00;99.90
1123;DHT22;548;48.778;9.252;2023-08-21T03:36:13;23.00;99.90
1123;DHT22;548;48.778;9.252;2023-08-21T03:38:41;23.00;99.90
1123;DHT22;548;48.778;9.252;2023-08-21T03:41:07;23.00;99.90
1123;DHT22;548;48.778;9.252;2023-08-21T03:43:34;23.00;99.90
1123;DHT22;548;48.778;9.252;2023-08-21T03:46:01;22.90;99.90
1123;DHT22;548;48.778;9.252;2023-08-21T03:48:27;22.90;99.90
1123;DHT22;548;48.778;9.252;2023-08-21T03:50:54;22.90;99.90
1123;DHT22;548;48.778;9.252;2023-08-21T03:53:21;22.90;99.90
1123;DHT22;548;48.778;9.252;2023-08-21T03:55:49;22.90;99.90
1123;DHT22;548;48.778;9.252;2023-08-21T03:58:16;22.80;99.90
1123;DHT22;548;48.778;9.252;2023-08-21T04:00:42;22.80;99.90
1123;DHT22;548;48.778;9.252;2023-08-21T04:03:09;22.80;99.90
1123;DHT22;548;48.778;9.252;2023-08-21T04:05:36;22.80;99.90
1123;DHT22;548;48.778;9.252;2023-08-21T04:08:04;22.70;99.90
1123;DHT22;548;48.778;9.252;2023-08-21T04:10:30;22.80;99.90
1123;DHT22;548;48.778;9.252;2023-08-21T04:12:58;22.70;99.90
1123;DHT22;548;48.778;9.252;2023-08-21T04:15:25;22.70;99.90
1123;DHT22;548;48.778;9.252;2023-08-21T04:17:52;22.70;99.90
1123;DHT22;548;48.778;9.252;2023-08-21T04:20:20;22.70;99.90
1123;DHT22;548;48.778;9.252;2023-08-21T04:22:46;22.60;99.90
1123;DHT22;548;48.778;9.252;2023-08-21T04:25:13;22.70;99.90
1123;DHT22;548;48.778;9.252;2023-08-21T04:27:40;22.60;99.90
1123;DHT22;548;48.778;9.252;2023-08-21T04:30:09;22.60;99.90
1123;DHT22;548;48.778;9.252;2023-08-21T04:32:36;22.60;99.90
1123;DHT22;548;48.778;9.252;2023-08-21T04:35:04;22.70;99.90
1123;DHT22;548;48.778;9.252;2023-08-21T04:37:31;22.70;99.90
1123;DHT22;548;48.778;9.252;2023-08-21T04:39:58;22.70;99.90
1123;DHT22;548;48.778;9.252;2023-08-21T04:42:24;22.70;99.90
1123;DHT22;548;48.778;9.252;2023-08-21T04:44:51;22.80;99.90
1123;DHT22;548;48.778;9.252;2023-08-21T04:47:20;22.80;99.90
1123;DHT22;548;48.778;9.252;2023-08-21T04:49:48;22.80;99.90
1123;DHT22;548;48.778;9.252;2023-08-21T04:52:14;22.80;99.90
1123;DHT22;548;48.778;9.252;2023-08-21T04:54:41;22.80;99.90
1123;DHT22;548;48.778;9.252;2023-08-21T04:57:08;22.80;99.90
1123;DHT22;548;48.778;9.252;2023-08-21T04:59:35;22.80;99.90
1123;DHT22;548;48.778;9.252;2023-08-21T05:02:02;22.90;99.90
1123;DHT22;548;48.778;9.252;2023-08-21T05:04:30;22.90;99.90
1123;DHT22;548;48.778;9.252;2023-08-21T05:06:57;22.90;99.90
1123;DHT22;548;48.778;9.252;2023-08-21T05:09:23;23.00;99.90
1123;DHT22;548;48.778;9.252;2023-08-21T05:11:50;23.00;99.90
1123;DHT22;548;48.778;9.252;2023-08-21T05:14:17;23.00;99.90
1123;DHT22;548;48.778;9.252;2023-08-21T05:16:45;23.10;99.90
1123;DHT22;548;48.778;9.252;2023-08-21T05:19:12;23.20;99.90
1123;DHT22;548;48.778;9.252;2023-08-21T05:21:40;23.30;99.90
1123;DHT22;548;48.778;9.252;2023-08-21T05:24:07;23.50;99.90
1123;DHT22;548;48.778;9.252;2023-08-21T05:26:35;23.80;99.90
1123;DHT22;548;48.778;9.252;2023-08-21T05:29:02;24.00;99.90
1123;DHT22;548;48.778;9.252;2023-08-21T05:31:29;24.30;99.90
1123;DHT22;548;48.778;9.252;2023-08-21T05:33:55;24.50;99.90
1123;DHT22;548;48.778;9.252;2023-08-21T05:36:22;24.80;99.90
1123;DHT22;548;48.778;9.252;2023-08-21T05:38:50;25.00;99.90
1123;DHT22;548;48.778;9.252;2023-08-21T05:41:17;25.30;99.90
1123;DHT22;548;48.778;9.252;2023-08-21T05:43:43;25.50;99.90
1123;DHT22;548;48.778;9.252;2023-08-21T05:46:11;25.60;99.90
1123;DHT22;548;48.778;9.252;2023-08-21T05:48:38;25.60;99.90
1123;DHT22;548;48.778;9.252;2023-08-21T05:51:04;25.80;99.90
1123;DHT22;548;48.778;9.252;2023-08-21T05:53:31;26.10;99.90
1123;DHT22;548;48.778;9.252;2023-08-21T05:55:59;26.30;99.90
1123;DHT22;548;48.778;9.252;2023-08-21T05:58:26;26.60;99.90
1123;DHT22;548;48.778;9.252;2023-08-21T06:00:55;26.80;99.90
1123;DHT22;548;48.778;9.252;2023-08-21T06:03:22;26.90;99.90
1123;DHT22;548;48.778;9.252;2023-08-21T06:05:49;27.00;99.90
1123;DHT22;548;48.778;9.252;2023-08-21T06:08:16;27.40;99.90
1123;DHT22;548;48.778;9.252;2023-08-21T06:10:43;27.70;99.90
1123;DHT22;548;48.778;9.252;2023-08-21T06:13:11;28.00;99.90
1123;DHT22;548;48.778;9.252;2023-08-21T06:15:38;28.20;99.90
1123;DHT22;548;48.778;9.252;2023-08-21T06:18:05;28.40;99.90
1123;DHT22;548;48.778;9.252;2023-08-21T06:20:31;28.60;99.90
1123;DHT22;548;48.778;9.252;2023-08-21T06:22:58;28.60;99.90
1123;DHT22;548;48.778;9.252;2023-08-21T06:25:25;28.60;99.90
1123;DHT22;548;48.778;9.252;2023-08-21T06:27:51;28.70;99.90
1123;DHT22;548;48.778;9.252;2023-08-21T06:30:19;28.80;99.90
1123;DHT22;548;48.778;9.252;2023-08-21T06:32:46;28.80;99.90
1123;DHT22;548;48.778;9.252;2023-08-21T06:35:13;28.80;99.90
1123;DHT22;548;48.778;9.252;2023-08-21T06:37:40;29.10;99.90
1123;DHT22;548;48.778;9.252;2023-08-21T06:40:08;29.30;99.90
1123;DHT22;548;48.778;9.252;2023-08-21T06:42:35;29.60;99.90
1123;DHT22;548;48.778;9.252;2023-08-21T06:45:03;29.90;99.90
1123;DHT22;548;48.778;9.252;2023-08-21T06:47:32;30.20;99.90
1123;DHT22;548;48.778;9.252;2023-08-21T06:49:59;30.70;99.90
1123;DHT22;548;48.778;9.252;2023-08-21T06:52:26;30.90;99.90
1123;DHT22;548;48.778;9.252;2023-08-21T06:54:52;31.10;99.90
1123;DHT22;548;48.778;9.252;2023-08-21T06:57:19;31.30;99.90
1123;DHT22;548;48.778;9.252;2023-08-21T06:59:46;31.60;99.90
1123;DHT22;548;48.778;9.252;2023-08-21T07:02:13;31.60;99.90
1123;DHT22;548;48.778;9.252;2023-08-21T07:04:41;31.90;99.90
1123;DHT22;548;48.778;9.252;2023-08-21T07:07:07;32.20;99.90
1123;DHT22;548;48.778;9.252;2023-08-21T07:09:34;32.60;99.30
1123;DHT22;548;48.778;9.252;2023-08-21T07:12:01;32.90;98.20
1123;DHT22;548;48.778;9.252;2023-08-21T07:14:40;33.10;97.60
1123;DHT22;548;48.778;9.252;2023-08-21T07:17:07;33.40;96.90
1123;DHT22;548;48.778;9.252;2023-08-21T07:19:34;33.40;96.90
1123;DHT22;548;48.778;9.252;2023-08-21T07:22:02;33.80;96.30
1123;DHT22;548;48.778;9.252;2023-08-21T07:24:29;34.20;95.10
1123;DHT22;548;48.778;9.252;2023-08-21T07:26:55;34.80;94.10
1123;DHT22;548;48.778;9.252;2023-08-21T07:29:22;35.00;93.10
1123;DHT22;548;48.778;9.252;2023-08-21T07:31:49;35.40;92.20
1123;DHT22;548;48.778;9.252;2023-08-21T07:34:15;35.60;91.80
1123;DHT22;548;48.778;9.252;2023-08-21T07:36:42;35.70;91.60
1123;DHT22;548;48.778;9.252;2023-08-21T07:39:10;35.70;91.10
1123;DHT22;548;48.778;9.252;2023-08-21T07:41:37;35.60;91.30
1123;DHT22;548;48.778;9.252;2023-08-21T07:44:04;35.70;91.00
1123;DHT22;548;48.778;9.252;2023-08-21T07:46:30;36.30;90.30
1123;DHT22;548;48.778;9.252;2023-08-21T07:48:57;36.60;89.00
1123;DHT22;548;48.778;9.252;2023-08-21T07:51:24;37.00;87.80
1123;DHT22;548;48.778;9.252;2023-08-21T07:53:50;37.00;87.70
1123;DHT22;548;48.778;9.252;2023-08-21T07:56:18;37.20;86.40
1123;DHT22;548;48.778;9.252;2023-08-21T07:58:45;37.90;82.90
1123;DHT22;548;48.778;9.252;2023-08-21T08:01:12;37.80;79.80
1123;DHT22;548;48.778;9.252;2023-08-21T08:03:38;38.00;79.20
1123;DHT22;548;48.778;9.252;2023-08-21T08:06:05;38.30;78.10
1123;DHT22;548;48.778;9.252;2023-08-21T08:08:32;38.50;78.40
1123;DHT22;548;48.778;9.252;2023-08-21T08:11:01;38.70;77.60
1123;DHT22;548;48.778;9.252;2023-08-21T08:13:31;39.10;75.80
1123;DHT22;548;48.778;9.252;2023-08-21T08:15:58;39.10;74.60
1123;DHT22;548;48.778;9.252;2023-08-21T08:18:25;39.50;73.20
1123;DHT22;548;48.778;9.252;2023-08-21T08:20:51;40.20;71.70
1123;DHT22;548;48.778;9.252;2023-08-21T08:23:19;40.20;69.90
1123;DHT22;548;48.778;9.252;2023-08-21T08:25:46;39.80;71.10
1123;DHT22;548;48.778;9.252;2023-08-21T08:28:13;39.80;70.90
1123;DHT22;548;48.778;9.252;2023-08-21T08:30:41;40.10;70.30
1123;DHT22;548;48.778;9.252;2023-08-21T08:33:08;40.10;70.00
1123;DHT22;548;48.778;9.252;2023-08-21T08:35:35;40.50;69.30
1123;DHT22;548;48.778;9.252;2023-08-21T08:38:01;41.00;68.10
1123;DHT22;548;48.778;9.252;2023-08-21T08:40:28;41.10;67.30
1123;DHT22;548;48.778;9.252;2023-08-21T08:42:55;41.00;67.20
1123;DHT22;548;48.778;9.252;2023-08-21T08:45:28;41.10;66.60
1123;DHT22;548;48.778;9.252;2023-08-21T08:47:59;39.80;69.90
1123;DHT22;548;48.778;9.252;2023-08-21T08:50:28;39.90;69.80
1123;DHT22;548;48.778;9.252;2023-08-21T08:52:55;40.20;68.60
1123;DHT22;548;48.778;9.252;2023-08-21T08:55:23;40.80;68.00
1123;DHT22;548;48.778;9.252;2023-08-21T08:57:51;41.20;66.60
1123;DHT22;548;48.778;9.252;2023-08-21T09:00:19;41.20;65.90
1123;DHT22;548;48.778;9.252;2023-08-21T09:02:47;41.00;67.00
1123;DHT22;548;48.778;9.252;2023-08-21T09:05:15;40.90;66.30
1123;DHT22;548;48.778;9.252;2023-08-21T09:07:42;40.30;68.40
1123;DHT22;548;48.778;9.252;2023-08-21T09:10:13;40.50;68.20
1123;DHT22;548;48.778;9.252;2023-08-21T09:12:40;40.50;68.20
1123;DHT22;548;48.778;9.252;2023-08-21T09:15:08;40.70;68.30
1123;DHT22;548;48.778;9.252;2023-08-21T09:17:35;40.50;66.80
1123;DHT22;548;48.778;9.252;2023-08-21T09:20:05;40.40;68.50
1123;DHT22;548;48.778;9.252;2023-08-21T09:22:33;40.90;67.10
1123;DHT22;548;48.778;9.252;2023-08-21T09:25:02;41.50;65.00
1123;DHT22;548;48.778;9.252;2023-08-21T09:27:32;42.00;62.80
1123;DHT22;548;48.778;9.252;2023-08-21T09:29:59;42.30;62.20
1123;DHT22;548;48.778;9.252;2023-08-21T09:32:26;42.60;59.70
1123;DHT22;548;48.778;9.252;2023-08-21T09:34:53;42.80;59.10
1123;DHT22;548;48.778;9.252;2023-08-21T09:37:19;41.20;59.40
1123;DHT22;548;48.778;9.252;2023-08-21T09:39:47;40.60;61.70
1123;DHT22;548;48.778;9.252;2023-08-21T09:42:14;41.50;60.70
1123;DHT22;548;48.778;9.252;2023-08-21T09:44:42;41.30;59.70
1123;DHT22;548;48.778;9.252;2023-08-21T09:47:10;41.00;61.00
1123;DHT22;548;48.778;9.252;2023-08-21T09:49:37;41.40;60.40
1123;DHT22;548;48.778;9.252;2023-08-21T09:52:06;41.80;59.90
1123;DHT22;548;48.778;9.252;2023-08-21T09:54:35;42.00;59.20
1123;DHT22;548;48.778;9.252;2023-08-21T09:57:04;42.00;58.80
1123;DHT22;548;48.778;9.252;2023-08-21T09:59:31;42.30;59.40
1123;DHT22;548;48.778;9.252;2023-08-21T10:01:59;42.50;58.30
1123;DHT22;548;48.778;9.252;2023-08-21T10:04:28;42.70;57.40
1123;DHT22;548;48.778;9.252;2023-08-21T10:06:56;42.90;56.00
1123;DHT22;548;48.778;9.252;2023-08-21T10:09:24;42.90;55.00
1123;DHT22;548;48.778;9.252;2023-08-21T10:11:52;43.10;55.30
1123;DHT22;548;48.778;9.252;2023-08-21T10:14:22;42.90;55.40
1123;DHT22;548;48.778;9.252;2023-08-21T10:16:49;43.20;53.10
1123;DHT22;548;48.778;9.252;2023-08-21T10:19:17;42.40;54.20
1123;DHT22;548;48.778;9.252;2023-08-21T10:21:46;41.80;54.10
1123;DHT22;548;48.778;9.252;2023-08-21T10:24:26;42.20;55.10
1123;DHT22;548;48.778;9.252;2023-08-21T10:26:52;42.90;54.30
1123;DHT22;548;48.778;9.252;2023-08-21T10:29:20;42.80;53.80
1123;DHT22;548;48.778;9.252;2023-08-21T10:31:58;43.10;53.30
1123;DHT22;548;48.778;9.252;2023-08-21T10:34:32;43.40;52.40
1123;DHT22;548;48.778;9.252;2023-08-21T10:37:09;43.50;52.90
1123;DHT22;548;48.778;9.252;2023-08-21T10:39:38;43.50;52.40
1123;DHT22;548;48.778;9.252;2023-08-21T10:42:09;44.20;51.80
1123;DHT22;548;48.778;9.252;2023-08-21T10:44:52;44.40;51.20
1123;DHT22;548;48.778;9.252;2023-08-21T10:47:22;44.20;51.10
1123;DHT22;548;48.778;9.252;2023-08-21T10:49:51;44.20;51.50
1123;DHT22;548;48.778;9.252;2023-08-21T10:52:21;43.40;51.80
1123;DHT22;548;48.778;9.252;2023-08-21T10:54:50;43.50;51.60
1123;DHT22;548;48.778;9.252;2023-08-21T10:57:17;44.00;50.80
1123;DHT22;548;48.778;9.252;2023-08-21T10:59:58;43.80;50.40
1123;DHT22;548;48.778;9.252;2023-08-21T11:02:27;44.10;50.40
1123;DHT22;548;48.778;9.252;2023-08-21T11:04:55;44.40;49.70
1123;DHT22;548;48.778;9.252;2023-08-21T11:07:21;45.30;48.80
1123;DHT22;548;48.778;9.252;2023-08-21T11:09:49;45.40;48.50
1123;DHT22;548;48.778;9.252;2023-08-21T11:12:16;45.00;48.70
1123;DHT22;548;48.778;9.252;2023-08-21T11:14:43;43.80;49.50
1123;DHT22;548;48.778;9.252;2023-08-21T11:17:12;42.70;50.80
1123;DHT22;548;48.778;9.252;2023-08-21T11:19:40;42.40;51.70
1123;DHT22;548;48.778;9.252;2023-08-21T11:22:07;42.90;52.00
1123;DHT22;548;48.778;9.252;2023-08-21T11:24:42;43.50;50.20
1123;DHT22;548;48.778;9.252;2023-08-21T11:27:10;43.40;50.20
1123;DHT22;548;48.778;9.252;2023-08-21T11:29:38;43.60;50.00
1123;DHT22;548;48.778;9.252;2023-08-21T11:32:25;43.20;51.30
1123;DHT22;548;48.778;9.252;2023-08-21T11:34:53;42.50;50.90
1123;DHT22;548;48.778;9.252;2023-08-21T11:37:20;41.90;51.90
1123;DHT22;548;48.778;9.252;2023-08-21T11:39:48;42.20;51.60
1123;DHT22;548;48.778;9.252;2023-08-21T11:42:15;41.90;52.00
1123;DHT22;548;48.778;9.252;2023-08-21T11:44:44;41.60;52.60
1123;DHT22;548;48.778;9.252;2023-08-21T11:47:12;41.60;52.90
1123;DHT22;548;48.778;9.252;2023-08-21T11:49:42;42.30;51.90
1123;DHT22;548;48.778;9.252;2023-08-21T11:52:10;42.30;51.10
1123;DHT22;548;48.778;9.252;2023-08-21T11:54:38;42.60;51.10
1123;DHT22;548;48.778;9.252;2023-08-21T11:57:07;42.60;50.90
1123;DHT22;548;48.778;9.252;2023-08-21T11:59:34;42.90;50.40
1123;DHT22;548;48.778;9.252;2023-08-21T12:02:08;43.10;50.20
1123;DHT22;548;48.778;9.252;2023-08-21T12:04:34;42.80;50.00
1123;DHT22;548;48.778;9.252;2023-08-21T12:07:03;42.50;51.20
1123;DHT22;548;48.778;9.252;2023-08-21T12:09:30;43.40;50.80
1123;DHT22;548;48.778;9.252;2023-08-21T12:11:57;43.80;49.90
1123;DHT22;548;48.778;9.252;2023-08-21T12:14:23;44.20;49.20
1123;DHT22;548;48.778;9.252;2023-08-21T12:16:50;43.40;50.00
1123;DHT22;548;48.778;9.252;2023-08-21T12:19:17;43.30;49.00
1123;DHT22;548;48.778;9.252;2023-08-21T12:21:44;44.00;49.40
1123;DHT22;548;48.778;9.252;2023-08-21T12:24:12;44.70;48.20
1123;DHT22;548;48.778;9.252;2023-08-21T12:26:42;45.30;47.00
1123;DHT22;548;48.778;9.252;2023-08-21T12:29:10;46.10;45.40
1123;DHT22;548;48.778;9.252;2023-08-21T12:31:37;46.50;44.80
1123;DHT22;548;48.778;9.252;2023-08-21T12:34:10;47.00;45.10
1123;DHT22;548;48.778;9.252;2023-08-21T12:36:37;46.60;43.60
1123;DHT22;548;48.778;9.252;2023-08-21T12:39:04;45.90;44.70
1123;DHT22;548;48.778;9.252;2023-08-21T12:41:32;45.30;45.70
1123;DHT22;548;48.778;9.252;2023-08-21T12:44:04;44.00;47.40
1123;DHT22;548;48.778;9.252;2023-08-21T12:46:34;42.40;49.90
1123;DHT22;548;48.778;9.252;2023-08-21T12:49:01;42.10;51.30
1123;DHT22;548;48.778;9.252;2023-08-21T12:51:28;42.50;51.20
1123;DHT22;548;48.778;9.252;2023-08-21T12:53:55;42.50;50.90
1123;DHT22;548;48.778;9.252;2023-08-21T12:56:24;42.80;50.00
1123;DHT22;548;48.778;9.252;2023-08-21T12:58:55;42.40;50.40
1123;DHT22;548;48.778;9.252;2023-08-21T13:01:26;42.20;51.10
1123;DHT22;548;48.778;9.252;2023-08-21T13:03:52;41.30;51.60
1123;DHT22;548;48.778;9.252;2023-08-21T13:06:21;39.60;53.70
1123;DHT22;548;48.778;9.252;2023-08-21T13:08:48;39.80;54.50
1123;DHT22;548;48.778;9.252;2023-08-21T13:11:15;40.80;53.00
1123;DHT22;548;48.778;9.252;2023-08-21T13:13:42;41.70;52.00
1123;DHT22;548;48.778;9.252;2023-08-21T13:16:11;42.60;49.90
1123;DHT22;548;48.778;9.252;2023-08-21T13:18:38;42.80;49.60
1123;DHT22;548;48.778;9.252;2023-08-21T13:21:05;42.50;49.90
1123;DHT22;548;48.778;9.252;2023-08-21T13:23:32;42.80;49.60
1123;DHT22;548;48.778;9.252;2023-08-21T13:26:00;42.20;49.60
1123;DHT22;548;48.778;9.252;2023-08-21T13:28:27;39.70;52.80
1123;DHT22;548;48.778;9.252;2023-08-21T13:30:56;38.60;55.70
1123;DHT22;548;48.778;9.252;2023-08-21T13:33:25;38.20;56.30
1123;DHT22;548;48.778;9.252;2023-08-21T13:35:51;37.40;56.90
1123;DHT22;548;48.778;9.252;2023-08-21T13:38:19;37.00;58.20
1123;DHT22;548;48.778;9.252;2023-08-21T13:40:45;36.90;59.00
1123;DHT22;548;48.778;9.252;2023-08-21T13:43:12;36.50;60.00
1123;DHT22;548;48.778;9.252;2023-08-21T13:45:39;36.40;60.70
1123;DHT22;548;48.778;9.252;2023-08-21T13:48:06;36.30;61.40
1123;DHT22;548;48.778;9.252;2023-08-21T13:50:35;36.90;59.50
1123;DHT22;548;48.778;9.252;2023-08-21T13:53:07;37.60;58.20
1123;DHT22;548;48.778;9.252;2023-08-21T13:55:36;38.40;57.80
1123;DHT22;548;48.778;9.252;2023-08-21T13:58:03;39.50;55.90
1123;DHT22;548;48.778;9.252;2023-08-21T14:00:43;40.60;54.30
1123;DHT22;548;48.778;9.252;2023-08-21T14:09:58;41.20;51.40
1123;DHT22;548;48.778;9.252;2023-08-21T14:12:25;39.80;53.60
1123;DHT22;548;48.778;9.252;2023-08-21T14:14:52;39.10;54.80
1123;DHT22;548;48.778;9.252;2023-08-21T14:17:19;39.50;55.20
1123;DHT22;548;48.778;9.252;2023-08-21T14:19:45;39.60;54.90
1123;DHT22;548;48.778;9.252;2023-08-21T14:22:12;39.90;54.70
1123;DHT22;548;48.778;9.252;2023-08-21T14:24:41;38.90;55.50
1123;DHT22;548;48.778;9.252;2023-08-21T14:30:31;37.10;59.00
1123;DHT22;548;48.778;9.252;2023-08-21T14:46:54;36.90;59.10
1123;DHT22;548;48.778;9.252;2023-08-21T14:52:47;36.30;60.90
1123;DHT22;548;48.778;9.252;2023-08-21T14:58:40;35.70;62.50
1123;DHT22;548;48.778;9.252;2023-08-21T15:11:16;35.00;64.60
1123;DHT22;548;48.778;9.252;2023-08-21T15:14:20;34.90;64.80
1123;DHT22;548;48.778;9.252;2023-08-21T15:16:47;34.80;65.90
1123;DHT22;548;48.778;9.252;2023-08-21T15:19:16;34.90;66.00
1123;DHT22;548;48.778;9.252;2023-08-21T15:21:47;34.90;65.70
1123;DHT22;548;48.778;9.252;2023-08-21T15:24:14;34.80;66.00
1123;DHT22;548;48.778;9.252;2023-08-21T15:26:51;34.80;66.90
1123;DHT22;548;48.778;9.252;2023-08-21T15:32:43;34.60;67.00
1123;DHT22;548;48.778;9.252;2023-08-21T15:35:13;34.50;67.20
1123;DHT22;548;48.778;9.252;2023-08-21T15:37:40;34.50;67.50
1123;DHT22;548;48.778;9.252;2023-08-21T15:46:52;34.00;69.70
1123;DHT22;548;48.778;9.252;2023-08-21T15:52:41;34.00;70.00
1123;DHT22;548;48.778;9.252;2023-08-21T15:55:08;34.00;70.60
1123;DHT22;548;48.778;9.252;2023-08-21T15:57:36;34.00;71.30
1123;DHT22;548;48.778;9.252;2023-08-21T16:00:03;33.90;71.50
1123;DHT22;548;48.778;9.252;2023-08-21T16:36:13;33.20;76.60
1123;DHT22;548;48.778;9.252;2023-08-21T16:38:54;33.30;77.10
1123;DHT22;548;48.778;9.252;2023-08-21T16:41:21;33.20;77.60
1123;DHT22;548;48.778;9.252;2023-08-21T16:43:49;33.30;77.50
1123;DHT22;548;48.778;9.252;2023-08-21T16:46:15;33.30;77.50
1123;DHT22;548;48.778;9.252;2023-08-21T16:48:42;33.30;78.10
1123;DHT22;548;48.778;9.252;2023-08-21T16:51:13;33.30;78.10
1123;DHT22;548;48.778;9.252;2023-08-21T16:53:43;33.20;78.80
1123;DHT22;548;48.778;9.252;2023-08-21T16:56:12;33.10;79.30
1123;DHT22;548;48.778;9.252;2023-08-21T16:58:39;33.00;79.80
1123;DHT22;548;48.778;9.252;2023-08-21T17:01:05;33.00;79.90
1123;DHT22;548;48.778;9.252;2023-08-21T17:03:32;32.80;80.70
1123;DHT22;548;48.778;9.252;2023-08-21T17:05:59;32.90;81.00
1123;DHT22;548;48.778;9.252;2023-08-21T17:08:27;32.90;81.70
1123;DHT22;548;48.778;9.252;2023-08-21T17:10:54;32.80;81.60
1123;DHT22;548;48.778;9.252;2023-08-21T17:13:21;32.80;82.00
1123;DHT22;548;48.778;9.252;2023-08-21T17:15:48;32.80;82.10
1123;DHT22;548;48.778;9.252;2023-08-21T17:18:16;32.70;82.20
1123;DHT22;548;48.778;9.252;2023-08-21T17:37:36;32.30;86.40
1123;DHT22;548;48.778;9.252;2023-08-21T17:40:03;32.30;86.90
1123;DHT22;548;48.778;9.252;2023-08-21T17:42:32;32.10;87.00
1123;DHT22;548;48.778;9.252;2023-08-21T17:44:59;32.00;87.60
1123;DHT22;548;48.778;9.252;2023-08-21T17:47:27;32.00;88.20
1123;DHT22;548;48.778;9.252;2023-08-21T17:49:54;32.00;88.50
1123;DHT22;548;48.778;9.252;2023-08-21T17:52:21;32.00;88.70
1123;DHT22;548;48.778;9.252;2023-08-21T17:54:49;31.90;89.20
1123;DHT22;548;48.778;9.252;2023-08-21T17:57:16;31.90;89.80
1123;DHT22;548;48.778;9.252;2023-08-21T17:59:43;31.90;90.10
1123;DHT22;548;48.778;9.252;2023-08-21T18:02:11;31.90;90.30
1123;DHT22;548;48.778;9.252;2023-08-21T18:04:40;31.70;90.30
1123;DHT22;548;48.778;9.252;2023-08-21T18:07:07;31.70;90.60